| time (UTC) | temp F | wind direction | speed knots | gust knots | rain 1hr in | rain 24hr in | rain mn in | humidity % | barometer mb |
| 20260831031536 | 64 | 319 | 0.0 | 3.5 | 0.00 | 0.01 | 0.01 | 72 | 1015.0 |
| 20260831030045 | 65 | 355 | 0.9 | 7.0 | 0.00 | 0.01 | 0.01 | 72 | 1015.3 |
| 20260831024536 | 66 | 5 | 3.5 | 8.7 | 0.00 | 0.01 | 0.01 | 72 | 1015.4 |
| 20260831023035 | 66 | 40 | 2.6 | 13.9 | 0.01 | 0.01 | 0.01 | 81 | 1015.4 |
| 20260831021535 | 66 | 5 | 0.9 | 7.8 | 0.01 | 0.01 | 0.01 | 85 | 1014.7 |
| 20260831020034 | 66 | 202 | 0.9 | 3.5 | 0.01 | 0.01 | 0.01 | 84 | 1014.3 |
| 20260831014536 | 67 | 175 | 1.7 | 4.3 | 0.01 | 0.01 | 0.01 | 83 | 1014.3 |
| 20260831013033 | 67 | 184 | 3.5 | 11.3 | 0.00 | 0.00 | 0.00 | 81 | 1014.1 |
| 20260831011538 | 67 | 218 | 0.0 | 1.7 | 0.00 | 0.00 | 0.00 | 81 | 1013.8 |
| 20260831010032 | 67 | 218 | 0.0 | 0.9 | 0.00 | 0.00 | 0.00 | 81 | 1013.6 |
| 20260831004531 | 67 | 218 | 0.0 | 1.7 | 0.00 | 0.00 | 0.00 | 80 | 1013.3 |
| 20260831003030 | 67 | 218 | 0.0 | 0.9 | 0.00 | 0.00 | 0.00 | 79 | 1013.2 |
| 20260831001530 | 67 | 218 | 0.0 | 0.9 | 0.00 | 0.00 | 0.00 | 79 | 1013.2 |
| 20260831000024 | 68 | 219 | 0.0 | 1.7 | 0.00 | 0.00 | 0.00 | 79 | 1013.0 |
| 20260830234523 | 68 | 219 | 0.0 | 0.9 | 0.00 | 0.00 | 0.00 | 79 | 1012.9 |
| 20260830233032 | 68 | 219 | 0.0 | 0.9 | 0.00 | 0.00 | 0.00 | 78 | 1012.7 |
| 20260830231523 | 69 | 219 | 0.0 | 1.7 | 0.00 | 0.00 | 0.00 | 76 | 1012.8 |
| 20260830230025 | 69 | 219 | 0.0 | 0.9 | 0.00 | 0.00 | 0.00 | 75 | 1012.8 |
| 20260830224520 | 70 | 219 | 0.0 | 0.9 | 0.00 | 0.00 | 0.00 | 74 | 1012.8 |
| 20260830223017 | 71 | 219 | 0.0 | 2.6 | 0.00 | 0.00 | 0.00 | 71 | 1013.0 |
| 20260830221517 | 71 | 304 | 0.0 | 0.9 | 0.00 | 0.00 | 0.00 | 70 | 1013.2 |
| 20260830220028 | 72 | 304 | 0.0 | 3.5 | 0.00 | 0.00 | 0.00 | 66 | 1013.0 |
| 20260830214518 | 73 | 178 | 0.9 | 2.6 | 0.00 | 0.00 | 0.00 | 64 | 1013.1 |
| 20260830213019 | 73 | 207 | 1.7 | 3.5 | 0.00 | 0.00 | 0.00 | 60 | 1013.2 |
| 20260830211513 | 74 | 217 | 0.0 | 5.2 | 0.00 | 0.00 | 0.00 | 61 | 1013.2 |
| 20260830210020 | 74 | 175 | 1.7 | 6.1 | 0.00 | 0.00 | 0.00 | 62 | 1013.4 |
| 20260830204512 | 74 | 255 | 0.9 | 4.3 | 0.00 | 0.00 | 0.00 | 60 | 1013.5 |
| 20260830203009 | 72 | 201 | 0.9 | 3.5 | 0.00 | 0.00 | 0.00 | 67 | 1013.6 |
| 20260830201509 | 72 | 223 | 0.9 | 3.5 | 0.00 | 0.00 | 0.00 | 67 | 1013.6 |
| 20260830200008 | 71 | 171 | 1.7 | 4.3 | 0.00 | 0.00 | 0.00 | 69 | 1013.6 |
| 20260830194507 | 72 | 217 | 0.0 | 4.3 | 0.00 | 0.00 | 0.00 | 69 | 1013.8 |
| 20260830193003 | 71 | 218 | 0.0 | 3.5 | 0.00 | 0.00 | 0.00 | 71 | 1014.0 |
| 20260830191507 | 71 | 234 | 0.9 | 2.6 | 0.00 | 0.00 | 0.00 | 74 | 1014.2 |
| 20260830190111 | 71 | 230 | 0.9 | 3.5 | 0.00 | 0.00 | 0.00 | 77 | 1014.3 |
| 20260830184559 | 70 | 229 | 0.9 | 2.6 | 0.00 | 0.00 | 0.00 | 79 | 1014.5 |
| 20260830183056 | 69 | 181 | 0.9 | 3.5 | 0.00 | 0.00 | 0.00 | 82 | 1014.8 |
| 20260830181656 | 69 | 251 | 0.0 | 3.5 | 0.00 | 0.00 | 0.00 | 80 | 1015.0 |
| 20260830180056 | 68 | 137 | 0.0 | 2.6 | 0.00 | 0.00 | 0.00 | 84 | 1015.2 |
| 20260830174557 | 68 | 264 | 0.9 | 5.2 | 0.00 | 0.00 | 0.00 | 82 | 1015.4 |
| 20260830173053 | 69 | 181 | 0.0 | 2.6 | 0.00 | 0.00 | 0.00 | 82 | 1015.4 |
| 20260830171552 | 69 | 210 | 0.0 | 0.9 | 0.00 | 0.00 | 0.00 | 80 | 1015.5 |
| 20260830170152 | 72 | 150 | 0.0 | 1.7 | 0.00 | 0.00 | 0.00 | 74 | 1015.1 |
| 20260830164549 | 73 | 273 | 0.9 | 8.7 | 0.00 | 0.00 | 0.00 | 64 | 1015.6 |
| 20260830163048 | 74 | 221 | 1.7 | 6.1 | 0.00 | 0.00 | 0.00 | 62 | 1015.6 |
| 20260830161559 | 74 | 236 | 1.7 | 8.7 | 0.00 | 0.00 | 0.00 | 61 | 1015.6 |
| 20260830160048 | 75 | 219 | 3.5 | 6.1 | 0.00 | 0.00 | 0.00 | 58 | 1015.8 |
| 20260830154545 | 75 | 243 | 2.6 | 9.6 | 0.00 | 0.00 | 0.00 | 60 | 1015.7 |
| 20260830153045 | 76 | 187 | 1.7 | 7.8 | 0.00 | 0.00 | 0.00 | 59 | 1015.7 |
| 20260830151542 | 76 | 251 | 1.7 | 4.3 | 0.00 | 0.00 | 0.00 | 56 | 1015.8 |
| 20260830150043 | 73 | 161 | 0.9 | 2.6 | 0.00 | 0.00 | 0.00 | 67 | 1016.0 |
| 20260830144543 | 72 | 198 | 0.0 | 2.6 | 0.00 | 0.00 | 0.00 | 70 | 1016.1 |
| 20260830143033 | 72 | 215 | 0.0 | 8.7 | 0.00 | 0.00 | 0.00 | 65 | 1016.2 |
| 20260830141539 | 71 | 246 | 0.9 | 3.5 | 0.00 | 0.00 | 0.00 | 69 | 1016.4 |
| 20260830140029 | 71 | 182 | 0.9 | 3.5 | 0.00 | 0.00 | 0.00 | 68 | 1016.3 |
| 20260830134529 | 70 | 182 | 0.9 | 7.0 | 0.00 | 0.00 | 0.00 | 66 | 1016.4 |
| 20260830133023 | 68 | 226 | 0.9 | 7.8 | 0.00 | 0.00 | 0.00 | 70 | 1016.3 |
| 20260830131540 | 67 | 200 | 1.7 | 9.6 | 0.00 | 0.00 | 0.00 | 70 | 1016.5 |
| 20260830130018 | 66 | 145 | 0.9 | 4.3 | 0.00 | 0.00 | 0.00 | 75 | 1016.5 |
| 20260830124515 | 65 | 217 | 1.7 | 7.0 | 0.00 | 0.00 | 0.00 | 76 | 1016.7 |
| 20260830123011 | 64 | 187 | 0.9 | 6.1 | 0.00 | 0.00 | 0.00 | 80 | 1016.6 |
| 20260830121507 | 59 | 183 | 1.7 | 5.2 | 0.00 | 0.00 | 0.00 | 87 | 1016.8 |
| 20260830120002 | 57 | 200 | 0.9 | 2.6 | 0.00 | 0.00 | 0.00 | 88 | 1016.9 |
| 20260830114601 | 57 | 274 | 0.0 | 1.7 | 0.00 | 0.00 | 0.00 | 88 | 1016.9 |
| 20260830113058 | 56 | 274 | 0.0 | 0.9 | 0.00 | 0.00 | 0.00 | 88 | 1017.1 |
| 20260830111556 | 56 | 274 | 0.0 | 0.9 | 0.00 | 0.00 | 0.00 | 88 | 1017.0 |
| 20260830110055 | 54 | 71 | 0.9 | 2.6 | 0.00 | 0.00 | 0.00 | 88 | 1016.9 |
| 20260830104553 | 53 | 267 | 0.9 | 1.7 | 0.00 | 0.00 | 0.00 | 89 | 1016.8 |
| 20260830103052 | 53 | 267 | 0.0 | 1.7 | 0.00 | 0.00 | 0.00 | 89 | 1016.8 |
| 20260830101553 | 52 | 267 | 0.0 | 1.7 | 0.00 | 0.00 | 0.00 | 89 | 1017.1 |
| 20260830100049 | 52 | 267 | 0.0 | 1.7 | 0.00 | 0.00 | 0.00 | 89 | 1017.1 |
| 20260830094550 | 51 | 267 | 0.0 | 0.9 | 0.00 | 0.00 | 0.00 | 89 | 1017.1 |
| 20260830093046 | 51 | 267 | 0.0 | 0.9 | 0.00 | 0.00 | 0.00 | 89 | 1017.4 |
| 20260830091547 | 51 | 267 | 0.0 | 1.7 | 0.00 | 0.00 | 0.00 | 89 | 1017.5 |
| 20260830090045 | 51 | 267 | 0.0 | 0.9 | 0.00 | 0.00 | 0.00 | 89 | 1017.5 |
| 20260830084545 | 51 | 267 | 0.0 | 1.7 | 0.00 | 0.00 | 0.00 | 89 | 1017.6 |
| 20260830083049 | 51 | 267 | 0.0 | 0.9 | 0.00 | 0.00 | 0.00 | 89 | 1017.5 |
| 20260830081542 | 51 | 267 | 0.0 | 0.9 | 0.00 | 0.00 | 0.00 | 89 | 1017.4 |
| 20260830080043 | 51 | 267 | 0.0 | 0.9 | 0.00 | 0.00 | 0.00 | 89 | 1017.3 |
| 20260830074542 | 51 | 267 | 0.0 | 0.9 | 0.00 | 0.00 | 0.00 | 88 | 1017.4 |
| 20260830073038 | 51 | 267 | 0.0 | 0.0 | 0.00 | 0.00 | 0.00 | 88 | 1017.4 |
| 20260830071539 | 51 | 267 | 0.0 | 0.9 | 0.00 | 0.00 | 0.00 | 88 | 1017.4 |
| 20260830070057 | 51 | 267 | 0.0 | 0.0 | 0.00 | 0.00 | 0.00 | 88 | 1017.5 |
| 20260830064533 | 51 | 267 | 0.0 | 0.9 | 0.00 | 0.00 | 0.00 | 88 | 1017.5 |
| 20260830063034 | 52 | 267 | 0.0 | 1.7 | 0.00 | 0.00 | 0.00 | 87 | 1017.5 |
| 20260830061528 | 52 | 267 | 0.0 | 0.9 | 0.00 | 0.00 | 0.00 | 87 | 1017.7 |
| 20260830060042 | 53 | 267 | 0.0 | 0.0 | 0.00 | 0.00 | 0.00 | 87 | 1017.7 |
| 20260830054526 | 53 | 267 | 0.0 | 0.9 | 0.00 | 0.00 | 0.00 | 87 | 1017.8 |
| 20260830053023 | 53 | 267 | 0.0 | 0.0 | 0.00 | 0.00 | 0.00 | 86 | 1017.8 |
| 20260830051533 | 54 | 267 | 0.0 | 0.9 | 0.00 | 0.00 | 0.00 | 85 | 1017.8 |
| 20260830050020 | 54 | 267 | 0.0 | 0.9 | 0.00 | 0.00 | 0.00 | 85 | 1017.9 |
| 20260830044534 | 54 | 267 | 0.0 | 1.7 | 0.00 | 0.00 | 0.00 | 85 | 1017.9 |
| 20260830043017 | 55 | 267 | 0.0 | 0.9 | 0.00 | 0.00 | 0.00 | 85 | 1018.2 |
| 20260830041539 | 54 | 267 | 0.0 | 0.9 | 0.00 | 0.00 | 0.00 | 87 | 1018.2 |
| 20260830040011 | 53 | 267 | 0.0 | 0.9 | 0.00 | 0.00 | 0.00 | 87 | 1018.1 |
| 20260830034511 | 53 | 267 | 0.0 | 0.0 | 0.00 | 0.00 | 0.00 | 87 | 1018.3 |
| 20260830033013 | 54 | 267 | 0.0 | 1.7 | 0.00 | 0.00 | 0.00 | 87 | 1018.2 |